Conway, North Dakota
Current Conditions -  °F | °C
As of 9:35 AM on Saturday 25 Oct 2014 (Local Time) from KGAF Reporting Station
Clear Clear  
Wind Chill:   Ceiling: Unl
Heat Index:   Visibility: 10mi
Dew Point:   Wind: 13mph
Humidity: 66%   Direction: 270°W
Pressure: 30.05"   Gusts: NA
Location:  48.2362°N, 97.4515°W
Report Text: KGAF 251435Z AUTO 27011KT 10SM CLR 06/00 A3005 RMK AO2
Loading
Personal Weather Stations






























Interactive Weather Map
Tropical Storm Tracking
New forecast layout! Learn more

10-Day Weather Forecast

Advertisements
Track Severe Weather on mobile